Tetney, United Kingdom
Current Conditions -  °F | °C
As of 5:50 PM on Friday 24 Oct 2014 (Local Time) from EGXS Reporting Station
Broken Clouds Broken Clouds  
Wind Chill: 55°   Ceiling: 3300
Heat Index: 55°   Visibility: 3mi
Dew Point: 54°   Wind: 6mph
Humidity: 94%   Direction: 90°E
Pressure: 29.83"   Gusts: NA
Location:  53.49°N, 0.02°W
Report Text: EGXS 241650Z AUTO 09005KT 5000 // FEW015/// BKN033/// 13/12 Q1010
Loading
Personal Weather Stations






























Interactive Weather Map New forecast layout! Learn more

10-Day Weather Forecast

Advertisements
Track Severe Weather on mobile